createdAt,value
2019-03-04T00:02:21.358Z,68.13
2019-03-04T00:05:24.992Z,73.23
2019-03-04T00:08:28.641Z,63.60
2019-03-04T00:11:32.778Z,59.27
2019-03-04T00:14:36.670Z,65.63
2019-03-04T00:17:40.255Z,60.53
2019-03-04T00:20:44.125Z,60.10
2019-03-04T00:23:47.762Z,55.93
2019-03-04T00:26:51.325Z,62.20
2019-03-04T00:29:55.201Z,57.60
2019-03-04T00:32:59.367Z,55.53
2019-03-04T00:36:02.938Z,52.67
2019-03-04T00:39:10.330Z,49.83
2019-03-04T00:42:14.120Z,50.77
2019-03-04T00:45:18.040Z,50.43
2019-03-04T00:48:21.611Z,51.80
2019-03-04T00:51:25.222Z,46.27
2019-03-04T00:54:29.070Z,45.57
2019-03-04T00:57:32.637Z,47.57
2019-03-04T01:00:36.206Z,46.47
2019-03-04T01:03:39.782Z,41.17
2019-03-04T01:06:43.347Z,41.20
2019-03-04T01:09:47.196Z,39.87
2019-03-04T01:12:50.762Z,41.90
2019-03-04T01:15:54.336Z,39.37
2019-03-04T01:18:57.923Z,39.00
2019-03-04T01:22:01.489Z,37.37
2019-03-04T01:25:06.799Z,35.87
2019-03-04T01:28:10.642Z,37.20
2019-03-04T01:31:14.215Z,36.10
2019-03-04T01:34:17.794Z,30.77
2019-03-04T01:37:21.367Z,31.17
2019-03-04T01:40:25.114Z,32.50
2019-03-04T01:43:28.707Z,33.50
2019-03-04T01:46:32.285Z,34.47
2019-03-04T01:49:35.847Z,31.23
2019-03-04T01:52:39.800Z,31.60
2019-03-04T01:55:43.460Z,29.40
2019-03-04T01:58:47.295Z,30.70
2019-03-04T02:01:51.111Z,28.90
2019-03-04T02:04:54.675Z,28.67
2019-03-04T02:07:58.259Z,25.67
2019-03-04T02:11:02.149Z,26.03
2019-03-04T02:14:05.871Z,27.37
2019-03-04T02:17:09.458Z,28.07
2019-03-04T02:20:14.123Z,24.87
2019-03-04T02:23:17.747Z,25.50
2019-03-04T02:26:27.637Z,24.00
2019-03-04T02:29:31.190Z,24.47
2019-03-04T02:32:35.041Z,24.23
2019-03-04T02:35:39.160Z,21.83
2019-03-04T02:38:43.072Z,20.77
2019-03-04T02:41:47.114Z,23.03
2019-03-04T02:44:50.692Z,27.83
2019-03-04T02:47:54.261Z,21.40
2019-03-04T02:50:57.840Z,20.33
2019-03-04T02:54:01.422Z,19.13
2019-03-04T02:57:05.426Z,20.63
2019-03-04T03:00:10.007Z,18.00
2019-03-04T03:03:13.575Z,19.67
2019-03-04T03:06:17.154Z,17.10
2019-03-04T03:09:21.029Z,18.50
2019-03-04T03:12:24.625Z,18.73
2019-03-04T03:15:28.462Z,17.07
2019-03-04T03:18:32.041Z,16.20
2019-03-04T03:21:35.945Z,16.63
2019-03-04T03:24:39.519Z,18.07
2019-03-04T03:27:43.286Z,15.73
2019-03-04T03:30:46.851Z,16.70
2019-03-04T03:33:50.428Z,15.20
2019-03-04T03:36:53.995Z,15.87
2019-03-04T03:39:57.560Z,15.77
2019-03-04T03:43:01.152Z,15.17
2019-03-04T03:46:04.770Z,13.40
2019-03-04T03:49:08.341Z,14.57
2019-03-04T03:52:11.904Z,17.10
2019-03-04T03:55:15.739Z,16.57
2019-03-04T03:58:19.309Z,15.23
2019-03-04T04:01:23.471Z,13.17
2019-03-04T04:04:27.198Z,12.27
2019-03-04T04:07:31.072Z,13.20
2019-03-04T04:10:35.002Z,12.17
2019-03-04T04:13:38.561Z,11.90
2019-03-04T04:16:42.148Z,11.43
2019-03-04T04:19:46.126Z,12.27
2019-03-04T04:22:50.025Z,13.33
2019-03-04T04:25:53.593Z,12.47
2019-03-04T04:29:03.097Z,13.10
2019-03-04T04:32:06.972Z,12.27
2019-03-04T04:35:10.618Z,12.67
2019-03-04T04:38:14.482Z,11.10
2019-03-04T04:41:18.315Z,10.80
2019-03-04T04:44:22.227Z,9.30
2019-03-04T04:47:25.836Z,9.43
2019-03-04T04:50:29.580Z,10.60
2019-03-04T04:53:33.147Z,9.90
2019-03-04T04:56:36.813Z,8.97
2019-03-04T04:59:40.369Z,9.93
2019-03-04T05:02:43.959Z,9.20
2019-03-04T05:05:47.603Z,8.97
2019-03-04T05:08:51.164Z,8.80
2019-03-04T05:11:55.095Z,9.20
2019-03-04T05:14:58.959Z,8.10
2019-03-04T05:18:02.598Z,104.17
2019-03-04T05:21:06.178Z,494.10
2019-03-04T05:24:10.157Z,230.90
2019-03-04T05:27:13.689Z,206.50
2019-03-04T05:30:18.579Z,133.33
2019-03-04T05:33:22.185Z,146.67
2019-03-04T05:36:25.755Z,179.63
2019-03-04T05:39:29.341Z,677.20
2019-03-04T05:42:33.460Z,598.73
2019-03-04T05:45:37.054Z,573.50
2019-03-04T05:48:41.011Z,501.23
2019-03-04T05:51:44.873Z,305.77
2019-03-04T05:54:48.824Z,306.27
2019-03-04T05:57:52.409Z,333.27
2019-03-04T06:01:18.160Z,362.00
2019-03-04T06:04:21.754Z,244.23
2019-03-04T06:07:38.296Z,232.60
2019-03-04T06:10:42.153Z,223.43
2019-03-04T06:13:46.112Z,225.93
2019-03-04T06:16:49.784Z,214.73
2019-03-04T06:19:53.371Z,201.03
2019-03-04T06:22:57.269Z,202.20
2019-03-04T06:26:00.838Z,196.07
2019-03-04T06:29:04.418Z,192.50
2019-03-04T06:32:08.323Z,195.63
2019-03-04T06:35:12.435Z,175.57
2019-03-04T06:38:16.043Z,168.03
2019-03-04T06:41:19.918Z,171.50
2019-03-04T06:44:23.863Z,168.23
2019-03-04T06:47:27.949Z,167.47
2019-03-04T06:50:51.495Z,155.13
2019-03-04T06:54:14.384Z,160.57
2019-03-04T06:57:28.197Z,153.53
2019-03-04T07:01:02.686Z,146.87
2019-03-04T07:04:14.724Z,152.53
2019-03-04T07:07:18.617Z,143.33
2019-03-04T07:10:22.481Z,143.63
2019-03-04T07:13:26.409Z,141.83
2019-03-04T07:16:32.052Z,139.00
2019-03-04T07:19:36.943Z,138.90
2019-03-04T07:22:40.515Z,135.93
2019-03-04T07:25:44.103Z,127.63
2019-03-04T07:28:47.983Z,125.53
2019-03-04T07:31:51.578Z,125.60
2019-03-04T07:34:55.436Z,123.67
2019-03-04T07:38:26.786Z,122.40
2019-03-04T07:41:32.413Z,110.27
2019-03-04T07:44:35.997Z,112.10
2019-03-04T07:47:39.678Z,110.33
2019-03-04T07:50:43.259Z,109.30
2019-03-04T07:53:47.149Z,110.67
2019-03-04T07:56:50.732Z,108.23
2019-03-04T07:59:54.607Z,102.73
2019-03-04T08:02:58.527Z,102.37
2019-03-04T08:06:02.373Z,103.30
2019-03-04T08:09:56.412Z,99.47
2019-03-04T08:13:39.232Z,96.30
2019-03-04T08:16:43.142Z,97.43
2019-03-04T08:19:47.082Z,91.20
2019-03-04T08:22:50.738Z,89.93
2019-03-04T08:25:56.280Z,91.00
2019-03-04T08:28:59.842Z,90.30
2019-03-04T08:32:03.436Z,88.37
2019-03-04T08:35:07.426Z,81.10
2019-03-04T08:38:11.022Z,78.23
2019-03-04T08:41:14.914Z,82.03
2019-03-04T08:44:18.753Z,77.00
2019-03-04T08:47:22.330Z,73.63
2019-03-04T08:50:28.348Z,72.30
2019-03-04T08:53:32.246Z,68.27
2019-03-04T08:56:36.121Z,70.50
2019-03-04T08:59:39.685Z,66.20
2019-03-04T09:02:43.277Z,64.03
2019-03-04T09:05:47.231Z,62.97
2019-03-04T09:08:50.880Z,58.93
2019-03-04T09:11:54.460Z,61.90
2019-03-04T09:14:58.048Z,58.80
2019-03-04T09:18:01.637Z,55.43
2019-03-04T09:21:05.510Z,56.87
2019-03-04T09:24:09.658Z,52.27
2019-03-04T09:27:13.491Z,49.13
2019-03-04T09:30:17.684Z,51.90
2019-03-04T09:33:21.288Z,53.33
2019-03-04T09:36:25.542Z,51.40
2019-03-04T09:39:29.112Z,48.10
2019-03-04T09:42:33.361Z,48.80
2019-03-04T09:45:39.093Z,46.10
2019-03-04T09:48:42.902Z,43.70
2019-03-04T09:51:46.474Z,42.57
2019-03-04T09:54:50.428Z,44.13
2019-03-04T09:57:54.009Z,40.70
2019-03-04T10:01:11.609Z,43.80
2019-03-04T10:04:44.656Z,40.43
2019-03-04T10:08:21.717Z,40.50
2019-03-04T10:12:04.673Z,38.17
2019-03-04T10:15:49.971Z,36.17
2019-03-04T10:19:47.121Z,38.57
2019-03-04T10:23:21.057Z,35.33
2019-03-04T10:26:51.047Z,34.63
2019-03-04T10:30:03.282Z,32.87
2019-03-04T10:33:33.127Z,31.70
2019-03-04T10:36:56.803Z,31.27
2019-03-04T10:40:43.820Z,28.73
2019-03-04T10:44:37.871Z,31.83
2019-03-04T10:47:39.793Z,31.17
2019-03-04T10:50:43.359Z,28.27
2019-03-04T10:53:46.934Z,26.67
2019-03-04T10:56:50.675Z,25.50
2019-03-04T10:59:54.538Z,27.40
2019-03-04T11:02:58.473Z,26.60
2019-03-04T11:06:02.301Z,24.47
2019-03-04T11:09:07.768Z,25.03
2019-03-04T11:12:11.341Z,22.87
2019-03-04T11:15:19.795Z,23.00
2019-03-04T11:18:23.426Z,22.73
2019-03-04T11:21:27.290Z,21.20
2019-03-04T11:24:30.870Z,22.00
2019-03-04T11:27:34.444Z,20.33
2019-03-04T11:30:38.275Z,20.30
2019-03-04T11:33:42.186Z,20.27
2019-03-04T11:36:45.831Z,19.73
2019-03-04T11:39:54.928Z,20.03
2019-03-04T11:42:58.523Z,18.00
2019-03-04T11:46:02.196Z,19.20
2019-03-04T11:49:05.777Z,18.67
2019-03-04T11:52:09.854Z,18.27
2019-03-04T11:55:13.629Z,16.77
2019-03-04T11:58:17.199Z,17.83
2019-03-04T12:01:26.804Z,17.43
2019-03-04T12:04:30.382Z,16.73
2019-03-04T12:07:33.948Z,19.43
2019-03-04T12:10:38.137Z,14.87
2019-03-04T12:13:41.702Z,15.13
2019-03-04T12:16:45.271Z,14.50
2019-03-04T12:19:49.136Z,14.03
2019-03-04T12:22:52.697Z,15.23
2019-03-04T12:25:56.275Z,11.87
2019-03-04T12:29:14.153Z,12.20
2019-03-04T12:32:32.679Z,13.43
2019-03-04T12:35:43.969Z,11.57
2019-03-04T12:38:51.743Z,12.80
2019-03-04T12:42:08.888Z,12.60
2019-03-04T12:45:33.714Z,15.53
2019-03-04T12:48:42.749Z,11.60
2019-03-04T12:52:02.956Z,10.73
2019-03-04T12:55:08.793Z,14.73
2019-03-04T12:58:15.369Z,11.37
2019-03-04T13:01:27.936Z,11.70
2019-03-04T13:04:48.424Z,10.17
2019-03-04T13:07:52.002Z,10.73
2019-03-04T13:10:55.598Z,11.93
2019-03-04T13:13:59.244Z,10.20
2019-03-04T13:17:03.446Z,10.13
2019-03-04T13:20:08.365Z,9.03
2019-03-04T13:23:11.944Z,9.40
2019-03-04T13:26:15.544Z,9.10
2019-03-04T13:29:19.114Z,8.93
2019-03-04T13:32:22.703Z,9.00
2019-03-04T13:35:26.476Z,8.77
2019-03-04T13:38:30.071Z,9.97
2019-03-04T13:41:35.295Z,9.33
2019-03-04T13:44:38.862Z,8.23
2019-03-04T13:47:42.583Z,8.40
2019-03-04T13:50:46.528Z,7.97
2019-03-04T13:53:50.104Z,7.77
2019-03-04T13:56:54.312Z,7.87
2019-03-04T13:59:57.895Z,7.50
2019-03-04T14:03:09.214Z,6.63
2019-03-04T14:06:27.395Z,7.07
2019-03-04T14:09:31.257Z,7.27
2019-03-04T14:12:39.719Z,5.97
2019-03-04T14:15:43.426Z,7.43
2019-03-04T14:18:47.012Z,7.13
2019-03-04T14:21:50.898Z,4.60
2019-03-04T14:24:54.476Z,5.40
2019-03-04T14:27:58.346Z,7.20
2019-03-04T14:31:02.235Z,7.43
2019-03-04T14:34:05.824Z,6.70
2019-03-04T14:37:09.487Z,5.20
2019-03-04T14:40:14.508Z,5.93
2019-03-04T14:43:18.612Z,5.80
2019-03-04T14:46:25.982Z,5.43
2019-03-04T14:49:29.553Z,5.27
2019-03-04T14:52:33.612Z,4.83
2019-03-04T14:55:37.371Z,5.40
2019-03-04T14:58:41.184Z,4.73
2019-03-04T15:01:44.870Z,5.33
2019-03-04T15:04:48.448Z,4.90
2019-03-04T15:07:52.639Z,4.97
2019-03-04T15:10:56.480Z,4.53
2019-03-04T15:14:00.060Z,4.50
2019-03-04T15:17:03.810Z,4.50
2019-03-04T15:20:09.808Z,5.93
2019-03-04T15:23:13.843Z,3.83
2019-03-04T15:26:17.929Z,3.93
2019-03-04T15:29:21.499Z,4.23
2019-03-04T15:32:25.682Z,3.70
2019-03-04T15:35:29.253Z,5.00
2019-03-04T15:38:33.375Z,4.97
2019-03-04T15:41:40.328Z,3.70
2019-03-04T15:44:42.963Z,4.67
2019-03-04T15:47:46.607Z,3.73
2019-03-04T15:50:50.182Z,4.83
2019-03-04T15:53:53.773Z,6.47
2019-03-04T15:57:02.327Z,4.23
2019-03-04T16:00:07.571Z,84.83
2019-03-04T16:03:11.553Z,19.97
2019-03-04T16:06:15.154Z,15.73
2019-03-04T16:09:20.631Z,12.43
2019-03-04T16:12:25.260Z,12.00
2019-03-04T16:15:29.079Z,10.77
2019-03-04T16:18:32.649Z,9.57
2019-03-04T16:21:36.485Z,11.23
2019-03-04T16:24:40.133Z,9.37
2019-03-04T16:27:43.703Z,9.33
2019-03-04T16:30:49.456Z,11.50
2019-03-04T16:33:53.623Z,7.40
2019-03-04T16:36:57.194Z,8.97
2019-03-04T16:40:01.363Z,8.77
2019-03-04T16:43:04.922Z,6.27
2019-03-04T16:46:08.994Z,6.90
2019-03-04T16:49:12.642Z,7.03
2019-03-04T16:52:16.217Z,8.10
2019-03-04T16:55:19.923Z,7.37
2019-03-04T16:58:23.501Z,6.70
2019-03-04T17:01:27.136Z,5.50
2019-03-04T17:04:31.008Z,8.33
2019-03-04T17:07:34.589Z,5.83
2019-03-04T17:10:38.429Z,6.37
2019-03-04T17:13:42.045Z,6.73
2019-03-04T17:16:45.767Z,5.60
2019-03-04T17:19:49.370Z,6.00
2019-03-04T17:22:53.905Z,6.53
2019-03-04T17:25:57.722Z,4.07
2019-03-04T17:29:01.548Z,7.57
2019-03-04T17:32:07.799Z,7.27
2019-03-04T17:35:12.352Z,4.97
2019-03-04T17:38:21.808Z,4.40
2019-03-04T17:41:42.244Z,5.50
2019-03-04T17:44:53.577Z,5.43
2019-03-04T17:48:09.893Z,5.47
2019-03-04T17:51:29.192Z,6.10
2019-03-04T17:54:41.203Z,6.50
2019-03-04T17:57:54.224Z,13.50
2019-03-04T18:01:04.186Z,10.33
2019-03-04T18:04:15.733Z,7.63
2019-03-04T18:07:34.352Z,9.90
2019-03-04T18:10:49.434Z,12.80
2019-03-04T18:14:02.803Z,12.27
2019-03-04T18:17:14.953Z,7.90
2019-03-04T18:20:34.656Z,7.27
2019-03-04T18:23:43.290Z,7.90
2019-03-04T18:27:12.630Z,8.27
2019-03-04T18:30:42.762Z,9.53
2019-03-04T18:34:20.949Z,14.83
2019-03-04T18:38:06.340Z,16.23
2019-03-04T18:41:41.736Z,13.50
2019-03-04T18:45:08.626Z,9.23
2019-03-04T18:48:51.565Z,9.03
2019-03-04T18:52:00.075Z,17.50
2019-03-04T18:55:08.218Z,14.63
2019-03-04T18:58:19.823Z,17.63
2019-03-04T19:01:35.013Z,19.63
2019-03-04T19:04:47.298Z,10.47
2019-03-04T19:07:54.675Z,8.47
2019-03-04T19:11:15.386Z,10.67
2019-03-04T19:14:34.837Z,21.70
2019-03-04T19:17:51.633Z,18.77
2019-03-04T19:21:02.859Z,20.97
2019-03-04T19:24:11.145Z,24.80
2019-03-04T19:27:28.327Z,11.83
2019-03-04T19:30:41.963Z,12.80
2019-03-04T19:33:58.703Z,14.47
2019-03-04T19:37:18.706Z,11.93
2019-03-04T19:40:32.399Z,17.80
2019-03-04T19:43:45.012Z,14.47
2019-03-04T19:46:57.346Z,12.93
2019-03-04T19:50:13.123Z,10.93
2019-03-04T19:53:25.776Z,12.13
2019-03-04T19:56:46.992Z,15.03
2019-03-04T20:00:07.180Z,12.43
2019-03-04T20:03:19.770Z,13.90
2019-03-04T20:06:36.082Z,13.33
2019-03-04T20:09:49.301Z,11.67
2019-03-04T20:12:58.151Z,14.53
2019-03-04T20:16:01.840Z,19.40
2019-03-04T20:19:05.581Z,9.30
2019-03-04T20:22:09.396Z,15.37
2019-03-04T20:25:13.253Z,12.47
2019-03-04T20:28:17.059Z,10.70
2019-03-04T20:31:20.809Z,13.30
2019-03-04T20:34:24.639Z,17.83
2019-03-04T20:37:28.574Z,14.03
2019-03-04T20:40:32.254Z,12.00
2019-03-04T20:43:36.016Z,18.20
2019-03-04T20:46:52.649Z,10.93
2019-03-04T20:50:05.913Z,13.00
2019-03-04T20:53:22.375Z,13.10
2019-03-04T20:56:49.015Z,16.87
2019-03-04T20:59:58.542Z,9.57
2019-03-04T21:03:13.961Z,12.83
2019-03-04T21:06:31.232Z,8.13
2019-03-04T21:09:43.728Z,11.20
2019-03-04T21:12:54.188Z,23.47
2019-03-04T21:16:03.345Z,30.90
2019-03-04T21:19:15.292Z,24.33
2019-03-04T21:22:19.479Z,27.43
2019-03-04T21:25:41.658Z,25.43
2019-03-04T21:29:02.538Z,20.33
2019-03-04T21:32:51.617Z,22.73
2019-03-04T21:36:33.759Z,20.67
2019-03-04T21:39:37.725Z,22.67
2019-03-04T21:42:58.410Z,20.70
2019-03-04T21:46:46.728Z,17.57
2019-03-04T21:49:53.040Z,18.03
2019-03-04T21:53:07.611Z,21.10
2019-03-04T21:56:34.686Z,18.03
2019-03-04T21:59:38.544Z,18.83
2019-03-04T22:02:48.946Z,18.83
2019-03-04T22:05:52.651Z,18.50
2019-03-04T22:08:56.270Z,22.37
2019-03-04T22:12:00.142Z,19.07
2019-03-04T22:15:04.195Z,24.80
2019-03-04T22:18:08.237Z,56.70
2019-03-04T22:21:16.752Z,18.70
2019-03-04T22:24:18.064Z,24.53
2019-03-04T22:27:21.687Z,22.03
2019-03-04T22:30:25.275Z,15.53
2019-03-04T22:33:28.901Z,23.93
2019-03-04T22:36:32.511Z,21.80
2019-03-04T22:39:36.168Z,18.70
2019-03-04T22:42:39.839Z,17.87
2019-03-04T22:45:43.503Z,18.23
2019-03-04T22:48:47.084Z,18.40
2019-03-04T22:51:50.755Z,20.97
2019-03-04T22:54:54.439Z,201.00
2019-03-04T22:57:58.205Z,51.90
2019-03-04T23:01:33.659Z,51.30
2019-03-04T23:04:52.424Z,44.43
2019-03-04T23:07:56.588Z,50.20
2019-03-04T23:11:01.003Z,44.50
2019-03-04T23:14:14.915Z,51.17
2019-03-04T23:17:18.524Z,53.40
2019-03-04T23:20:22.114Z,46.23
2019-03-04T23:23:25.824Z,44.37
2019-03-04T23:26:29.443Z,44.07
2019-03-04T23:29:33.016Z,36.33
2019-03-04T23:32:36.596Z,34.03
2019-03-04T23:35:40.169Z,36.40
2019-03-04T23:38:43.825Z,35.27
2019-03-04T23:41:47.409Z,35.87
2019-03-04T23:44:51.008Z,35.63
2019-03-04T23:47:54.577Z,32.73
2019-03-04T23:50:59.872Z,42.97
2019-03-04T23:54:03.819Z,32.97
2019-03-04T23:57:07.397Z,32.20
